»·PEaware :: N285SR KHQM-S23

N285SR :: KHQM-S23

FLIGHT INFORMATION

Flight Status: Arrived
Operator: Privately registered:
United States
More flights under this callsign
Pilot: Scott R. (20908)
Aircraft: CESSNA 510 CITATION MUSTANG
(C510)
More flights by this aircraft type
Origin: KHQM Bowerman
United States
Destination: S23 Ione Mun
United States
More flights between these airports :: More routes between these airports
Route:
File this flight plan on PilotEdge
Remarks:
Altitude:
(Current/Filed)
14,500ft
Speed:
(Current/Filed)
280kts
Departed: 03-Jun-20 08:41 AM
Arrived: 03-Jun-20 09:40 AM
Distance/Time
Traveled:
283nm/0:59
Distance/Time
To Go:
Arrived

Flight Plot

Page will automatically refresh every two minutes.

Flight plan parsing failed; only flown route is shown


Map Options




Map Legend


Flown Route
Filed Route
Departure Airport
Arrival Airport
Navaid (VOR, NDB)
Fix

Horizontal Profiles

Position Reports

Time Latitude Longitude Heading Altitude Ground
Speed
03-Jun-20 08:39 46.973026 -123.927035 156 23ft 3kts
03-Jun-20 08:40 46.970358 -123.942236 260 189ft 130kts
03-Jun-20 08:41 46.982464 -124.001613 339 3252ft 201kts
03-Jun-20 08:42 47.030128 -123.971229 39 6918ft 199kts
03-Jun-20 08:43 47.055361 -123.891895 64 9728ft 227kts
03-Jun-20 08:44 47.080196 -123.800980 64 12242ft 254kts
03-Jun-20 08:45 47.106452 -123.701621 64 14746ft 270kts
03-Jun-20 08:46 47.136379 -123.588690 64 15513ft 332kts
03-Jun-20 08:47 47.172253 -123.456970 64 15506ft 356kts
03-Jun-20 08:48 47.209630 -123.320722 65 15498ft 363kts
03-Jun-20 08:49 47.247584 -123.182970 64 15498ft 364kts
03-Jun-20 08:50 47.285635 -123.044936 64 15495ft 364kts
03-Jun-20 08:51 47.323879 -122.906557 64 15485ft 364kts
03-Jun-20 08:52 47.362179 -122.767763 64 15483ft 364kts
03-Jun-20 08:53 47.400224 -122.629256 64 15486ft 364kts
03-Jun-20 08:54 47.438248 -122.490670 64 15489ft 364kts
03-Jun-20 08:55 47.476082 -122.352245 64 15492ft 363kts
03-Jun-20 08:56 47.513909 -122.213399 64 15488ft 363kts
03-Jun-20 08:57 47.551552 -122.075191 64 15482ft 363kts
03-Jun-20 08:58 47.589438 -121.936093 64 15467ft 363kts
03-Jun-20 08:59 47.627101 -121.797596 64 15464ft 362kts
03-Jun-20 09:00 47.664844 -121.658987 64 15465ft 362kts
03-Jun-20 09:01 47.702741 -121.520195 64 15466ft 363kts
03-Jun-20 09:02 47.738024 -121.379710 67 15467ft 364kts
03-Jun-20 09:03 47.771769 -121.237711 67 15461ft 363kts
03-Jun-20 09:04 47.805446 -121.096460 67 15505ft 361kts
03-Jun-20 09:05 47.839136 -120.955140 67 15467ft 362kts
03-Jun-20 09:06 47.872832 -120.813770 67 15464ft 362kts
03-Jun-20 09:07 47.906527 -120.672347 67 15465ft 362kts
03-Jun-20 09:08 47.940309 -120.531060 67 15466ft 361kts
03-Jun-20 09:09 47.973904 -120.389891 66 15467ft 361kts
03-Jun-20 09:10 48.007507 -120.248912 67 15461ft 361kts
03-Jun-20 09:11 48.041173 -120.107763 67 15461ft 360kts
03-Jun-20 09:12 48.074915 -119.966264 67 15463ft 360kts
03-Jun-20 09:13 48.108558 -119.825241 67 15465ft 360kts
03-Jun-20 09:14 48.144416 -119.685176 65 15465ft 360kts
03-Jun-20 09:15 48.180918 -119.544948 65 15466ft 361kts
03-Jun-20 09:16 48.217190 -119.404740 65 15467ft 361kts
03-Jun-20 09:17 48.252018 -119.269237 66 15461ft 360kts
03-Jun-20 09:18 48.287941 -119.128682 66 15462ft 360kts
03-Jun-20 09:19 48.323764 -118.987453 66 15462ft 360kts
03-Jun-20 09:20 48.359309 -118.846499 66 15458ft 361kts
03-Jun-20 09:21 48.394822 -118.704868 66 15456ft 362kts
03-Jun-20 09:22 48.430218 -118.562772 66 15423ft 364kts
03-Jun-20 09:23 48.463112 -118.430339 67 13536ft 314kts
03-Jun-20 09:24 48.492696 -118.310500 68 12205ft 303kts
03-Jun-20 09:25 48.521461 -118.193138 69 10876ft 293kts
03-Jun-20 09:26 48.549025 -118.079769 69 9583ft 281kts
03-Jun-20 09:27 48.552088 -117.967270 102 8590ft 278kts
03-Jun-20 09:28 48.539537 -117.851410 93 7794ft 281kts
03-Jun-20 09:29 48.536394 -117.738604 89 6983ft 262kts
03-Jun-20 09:30 48.536902 -117.630690 89 6523ft 247kts
03-Jun-20 09:31 48.537423 -117.534547 89 6516ft 204kts
03-Jun-20 09:32 48.537898 -117.457318 89 6173ft 179kts
03-Jun-20 09:33 48.541572 -117.384837 72 5213ft 167kts
03-Jun-20 09:34 48.579244 -117.364117 16 4223ft 138kts
03-Jun-20 09:35 48.616042 -117.361152 348 3722ft 129kts
03-Jun-20 09:36 48.649495 -117.375828 332 3210ft 117kts
03-Jun-20 09:37 48.676581 -117.397489 329 2652ft 103kts
03-Jun-20 09:38 48.702640 -117.411137 342 2130ft 96kts
03-Jun-20 09:39 48.711911 -117.414300 347 2112ft 19kts
03-Jun-20 09:40 48.713696 -117.414563 247 2112ft 0kts
03-Jun-20 09:42 48.713696 -117.414563 247 2112ft 0kts
03-Jun-20 09:43 48.713696 -117.414563 247 2112ft 0kts

Navigation Log

Ident Type
Flight plan parsing failed, navigation log unavailable